Time;durP1;ratioP1;P1;durP2;ratioP2;P2;SDS_P1;SDS_P2;PMS_P1;PMS_P2;Temp;Humidity;BMP_temperature;BMP_pressure;BME280_temperature;BME280_humidity;BME280_pressure;Samples;Min_cycle;Max_cycle;Signal;HPM_P1;HPM_P2
2022/06/27 00:01:37;;;;;;;5.82;3.00;;;18.50;99.90;;;;;;4963229;28;20042;-70
2022/06/27 00:04:04;;;;;;;5.38;3.00;;;18.50;99.90;;;;;;4996642;28;20184;-70
2022/06/27 00:06:30;;;;;;;5.82;2.90;;;18.60;99.90;;;;;;4996533;28;20070;-70
2022/06/27 00:08:55;;;;;;;6.43;2.65;;;18.50;99.90;;;;;;4979245;28;20078;-70
2022/06/27 00:11:22;;;;;;;5.50;2.92;;;18.50;99.90;;;;;;4996671;28;20486;-70
2022/06/27 00:13:48;;;;;;;5.65;2.70;;;18.50;99.90;;;;;;4996715;28;20045;-70
2022/06/27 00:16:14;;;;;;;4.50;2.55;;;18.50;99.90;;;;;;4979040;28;20507;-70
2022/06/27 00:18:40;;;;;;;6.25;2.60;;;18.50;99.90;;;;;;4978816;28;20054;-70
2022/06/27 00:21:05;;;;;;;6.10;2.50;;;18.50;99.90;;;;;;4978851;28;20038;-70
2022/06/27 00:23:31;;;;;;;6.65;2.80;;;18.50;99.90;;;;;;4962845;28;20042;-70
2022/06/27 00:25:57;;;;;;;5.68;2.88;;;18.40;99.90;;;;;;4962819;28;20038;-70
2022/06/27 00:28:22;;;;;;;5.72;2.80;;;18.40;99.90;;;;;;4978717;28;20042;-70
2022/06/27 00:30:48;;;;;;;5.15;3.05;;;18.30;99.90;;;;;;4978742;28;20038;-70
2022/06/27 00:33:13;;;;;;;6.55;2.47;;;18.30;99.90;;;;;;4996147;28;20073;-70
2022/06/27 00:35:39;;;;;;;5.50;3.08;;;18.30;99.90;;;;;;4978640;28;20092;-70
2022/06/27 00:38:05;;;;;;;4.28;2.85;;;18.20;99.90;;;;;;4978333;28;20133;-70
2022/06/27 00:40:31;;;;;;;5.25;2.80;;;18.20;99.90;;;;;;4995094;28;20039;-70
2022/06/27 00:42:56;;;;;;;5.38;3.00;;;18.20;99.90;;;;;;4978471;28;20085;-70
2022/06/27 00:45:22;;;;;;;5.20;3.00;;;18.20;99.90;;;;;;4978648;28;20097;-70
2022/06/27 00:47:48;;;;;;;6.13;2.90;;;18.10;99.90;;;;;;4962452;28;20129;-70
2022/06/27 00:50:13;;;;;;;6.25;2.80;;;18.10;99.90;;;;;;4978424;28;20068;-70
2022/06/27 00:52:40;;;;;;;5.93;3.13;;;18.10;99.90;;;;;;4978245;28;20064;-70
2022/06/27 00:55:06;;;;;;;6.20;3.38;;;18.00;99.90;;;;;;4978222;28;20038;-70
2022/06/27 00:57:32;;;;;;;8.93;3.20;;;18.00;99.90;;;;;;4994878;28;20514;-70
2022/06/27 00:59:58;;;;;;;5.25;3.13;;;18.00;99.90;;;;;;4995949;28;20026;-70
2022/06/27 01:02:23;;;;;;;4.88;3.00;;;18.00;99.90;;;;;;4978214;28;20565;-70
2022/06/27 01:04:49;;;;;;;6.47;3.13;;;18.00;99.90;;;;;;4978420;28;20050;-70
2022/06/27 01:07:15;;;;;;;6.43;3.30;;;18.00;99.90;;;;;;4978332;28;20052;-70
2022/06/27 01:09:42;;;;;;;5.95;3.55;;;18.00;99.90;;;;;;4977810;28;20047;-70
2022/06/27 01:12:08;;;;;;;7.78;3.63;;;18.00;99.90;;;;;;4978112;28;20406;-70
2022/06/27 01:14:34;;;;;;;6.35;3.53;;;18.00;99.90;;;;;;4977836;28;20121;-70
2022/06/27 01:17:00;;;;;;;5.25;3.70;;;17.90;99.90;;;;;;4978071;28;20042;-70
2022/06/27 01:19:26;;;;;;;6.82;3.83;;;17.90;99.90;;;;;;4978333;28;20047;-70
2022/06/27 01:21:53;;;;;;;6.75;3.42;;;17.90;99.90;;;;;;4977655;28;20042;-70
2022/06/27 01:24:22;;;;;;;7.45;3.55;;;17.90;99.90;;;;;;4977830;28;20411;-70
2022/06/27 01:26:48;;;;;;;7.00;3.20;;;17.80;99.90;;;;;;4977598;28;20104;-70
2022/06/27 01:29:14;;;;;;;6.55;3.75;;;17.80;99.90;;;;;;4977873;28;20133;-70
2022/06/27 01:31:40;;;;;;;7.20;3.30;;;17.80;99.90;;;;;;4994883;28;20070;-70
2022/06/27 01:34:07;;;;;;;7.32;3.78;;;17.80;99.90;;;;;;4995176;28;20069;-70
2022/06/27 01:36:42;;;;;;;8.80;3.55;;;17.70;99.90;;;;;;4993909;28;20093;-70
2022/06/27 01:39:19;;;;;;;5.25;3.25;;;17.70;99.90;;;;;;4961260;28;20586;-70
2022/06/27 01:41:47;;;;;;;6.80;3.58;;;17.70;99.90;;;;;;4977369;28;20061;-70
2022/06/27 01:44:14;;;;;;;6.38;3.75;;;17.70;99.90;;;;;;4993517;28;20066;-70
2022/06/27 01:46:48;;;;;;;7.78;3.75;;;17.70;99.90;;;;;;4993452;28;20038;-70
2022/06/27 01:49:16;;;;;;;6.43;4.07;;;17.70;99.90;;;;;;4961173;28;20054;-70
2022/06/27 01:51:43;;;;;;;6.72;3.80;;;17.70;99.90;;;;;;4976610;28;20509;-70
2022/06/27 01:54:11;;;;;;;9.45;4.13;;;17.70;99.90;;;;;;4977086;28;20490;-70
2022/06/27 01:56:38;;;;;;;7.25;4.03;;;17.70;99.90;;;;;;4977080;28;20042;-70
2022/06/27 01:59:03;;;;;;;8.07;4.63;;;17.70;99.90;;;;;;4993571;28;20402;-70
2022/06/27 02:01:29;;;;;;;11.02;4.30;;;17.70;99.90;;;;;;4994386;28;20031;-70
2022/06/27 02:03:56;;;;;;;6.20;3.88;;;17.70;99.90;;;;;;4977010;28;20572;-70
2022/06/27 02:06:23;;;;;;;8.02;4.10;;;17.70;99.90;;;;;;4994593;28;20089;-70
2022/06/27 02:08:51;;;;;;;8.65;4.35;;;17.70;99.90;;;;;;4993081;28;20046;-70
2022/06/27 02:11:18;;;;;;;9.73;3.80;;;17.70;99.90;;;;;;4993313;28;20486;-70
2022/06/27 02:13:44;;;;;;;5.38;4.28;;;17.70;99.90;;;;;;4976776;28;20090;-70
2022/06/27 02:16:15;;;;;;;6.25;4.22;;;17.70;99.90;;;;;;4992967;28;20085;-70
2022/06/27 02:18:42;;;;;;;9.13;4.55;;;17.70;99.90;;;;;;4961005;28;20050;-70
2022/06/27 02:21:10;;;;;;;5.40;4.25;;;17.70;99.90;;;;;;4977090;28;20042;-70
2022/06/27 02:23:36;;;;;;;11.15;4.70;;;17.70;99.90;;;;;;4993221;28;20069;-70
2022/06/27 02:26:02;;;;;;;6.32;4.53;;;17.70;99.90;;;;;;4976934;28;20095;-70
2022/06/27 02:28:29;;;;;;;6.30;4.53;;;17.70;99.90;;;;;;4976693;28;20410;-70
2022/06/27 02:30:55;;;;;;;6.88;4.82;;;17.70;99.90;;;;;;4994144;28;20136;-70
2022/06/27 02:33:21;;;;;;;8.20;4.15;;;17.60;99.90;;;;;;4960719;28;20521;-70
2022/06/27 02:35:49;;;;;;;6.63;5.20;;;17.70;99.90;;;;;;4976578;28;20411;-70
2022/06/27 02:38:17;;;;;;;8.73;4.45;;;17.70;99.90;;;;;;4992906;28;20049;-69
2022/06/27 02:40:44;;;;;;;8.95;4.90;;;17.70;99.90;;;;;;4992559;28;20092;-70
2022/06/27 02:43:13;;;;;;;6.13;4.78;;;17.70;99.90;;;;;;4960298;28;20057;-70
2022/06/27 02:45:40;;;;;;;7.88;4.80;;;17.70;99.90;;;;;;4993731;28;20403;-70
2022/06/27 02:48:07;;;;;;;7.38;5.00;;;17.70;99.90;;;;;;4976471;28;20495;-70
2022/06/27 02:50:36;;;;;;;8.60;5.30;;;17.70;99.90;;;;;;4976471;28;20047;-70
2022/06/27 02:53:09;;;;;;;8.80;4.82;;;17.70;99.90;;;;;;4976359;28;20412;-70
2022/06/27 02:55:39;;;;;;;9.10;5.53;;;17.70;99.90;;;;;;4994046;28;20133;-70
2022/06/27 02:58:21;;;;;;;7.10;5.43;;;17.70;99.90;;;;;;4976223;28;20499;-70
2022/06/27 03:00:48;;;;;;;6.23;5.50;;;17.70;99.90;;;;;;4993003;28;20065;-70
2022/06/27 03:03:16;;;;;;;9.18;6.10;;;17.60;99.90;;;;;;4994956;28;20418;-70
2022/06/27 03:05:57;;;;;;;9.48;7.35;;;17.70;99.90;;;;;;4997658;28;20038;-70
2022/06/27 03:08:22;;;;;;;9.57;8.65;;;17.70;99.90;;;;;;4980108;28;20042;-70
2022/06/27 03:10:48;;;;;;;9.85;8.43;;;17.70;99.90;;;;;;4997789;28;20061;-70
2022/06/27 03:13:14;;;;;;;9.82;8.40;;;17.70;99.90;;;;;;4997581;28;20038;-70
2022/06/27 03:15:39;;;;;;;9.70;8.70;;;17.70;99.90;;;;;;4980045;28;20484;-70
2022/06/27 03:18:05;;;;;;;11.77;8.63;;;17.70;99.90;;;;;;4997377;28;20050;-70
2022/06/27 03:20:31;;;;;;;9.70;8.73;;;17.70;99.90;;;;;;4997285;28;20049;-70
2022/06/27 03:22:56;;;;;;;9.95;8.88;;;17.70;99.90;;;;;;4979849;28;20038;-70
2022/06/27 03:25:22;;;;;;;10.05;8.63;;;17.70;99.90;;;;;;4979960;28;20061;-70
2022/06/27 03:27:48;;;;;;;10.70;9.63;;;17.70;99.90;;;;;;4980148;28;20125;-70
2022/06/27 03:30:13;;;;;;;10.32;9.30;;;17.70;99.90;;;;;;4980119;28;20042;-70
2022/06/27 03:32:39;;;;;;;11.32;9.50;;;17.70;99.90;;;;;;4979915;28;20074;-70
2022/06/27 03:35:05;;;;;;;13.10;9.55;;;17.70;99.90;;;;;;4980133;28;20054;-70
2022/06/27 03:37:30;;;;;;;13.07;9.80;;;17.70;99.90;;;;;;4979644;28;20046;-70
2022/06/27 03:39:56;;;;;;;10.93;9.32;;;17.70;99.90;;;;;;4979656;28;20051;-70
2022/06/27 03:42:22;;;;;;;9.52;8.48;;;17.70;99.90;;;;;;4997249;28;20118;-70
2022/06/27 03:44:47;;;;;;;11.35;8.18;;;17.70;99.90;;;;;;4979796;28;20096;-70
2022/06/27 03:47:13;;;;;;;8.98;8.07;;;17.70;99.90;;;;;;4996933;28;20074;-70
2022/06/27 03:52:22;;;;;;;11.50;8.05;;;17.60;99.90;;;;;;4979708;28;20038;-70
2022/06/27 03:54:48;;;;;;;10.57;8.63;;;17.60;99.90;;;;;;4979400;28;20550;-70
2022/06/27 03:57:13;;;;;;;10.77;8.18;;;17.50;99.90;;;;;;4979317;28;20042;-70
2022/06/27 03:59:39;;;;;;;12.38;9.13;;;17.50;99.90;;;;;;4979307;28;20038;-70
2022/06/27 04:02:05;;;;;;;12.18;9.35;;;17.60;99.90;;;;;;4963170;28;20104;-70
2022/06/27 04:04:30;;;;;;;11.43;9.80;;;17.60;99.90;;;;;;4979244;28;20050;-70
2022/06/27 04:06:56;;;;;;;10.63;9.50;;;17.60;99.90;;;;;;4963148;28;20042;-70
2022/06/27 04:09:22;;;;;;;11.40;10.20;;;17.60;99.90;;;;;;4979070;28;20046;-70
2022/06/27 04:11:47;;;;;;;11.45;10.27;;;17.70;99.90;;;;;;4979072;28;20030;-70
2022/06/27 04:14:13;;;;;;;10.77;9.60;;;17.70;99.90;;;;;;4978648;28;20042;-70
2022/06/27 04:16:39;;;;;;;11.98;10.77;;;17.70;99.90;;;;;;4979274;28;20158;-70
2022/06/27 04:19:04;;;;;;;12.18;10.73;;;17.70;99.90;;;;;;4978905;28;20046;-70
2022/06/27 04:21:32;;;;;;;13.32;11.70;;;17.70;99.90;;;;;;4978796;28;20092;-70
2022/06/27 04:23:57;;;;;;;12.63;11.40;;;17.70;99.90;;;;;;4996538;28;20046;-70
2022/06/27 04:26:24;;;;;;;12.75;11.55;;;17.70;99.90;;;;;;4978847;28;20042;-70
2022/06/27 04:28:50;;;;;;;13.25;11.85;;;17.70;99.90;;;;;;4978743;28;20049;-70
2022/06/27 04:31:16;;;;;;;11.07;9.90;;;17.60;99.90;;;;;;4978959;28;20425;-70
2022/06/27 04:33:44;;;;;;;12.77;10.30;;;17.60;99.90;;;;;;4978722;28;20034;-70
2022/06/27 04:36:10;;;;;;;10.07;9.07;;;17.60;99.90;;;;;;4962494;28;20046;-70
2022/06/27 04:38:36;;;;;;;10.77;9.68;;;17.60;99.90;;;;;;4978548;28;20050;-70
2022/06/27 04:41:01;;;;;;;8.23;7.43;;;17.60;99.90;;;;;;4978994;28;20042;-70
2022/06/27 04:43:27;;;;;;;10.32;7.25;;;17.60;99.90;;;;;;4996201;28;20038;-70
2022/06/27 04:45:54;;;;;;;8.40;6.60;;;17.60;99.90;;;;;;4978713;28;20048;-70
2022/06/27 04:48:20;;;;;;;8.55;6.97;;;17.60;99.90;;;;;;4978337;28;20077;-69
2022/06/27 04:50:47;;;;;;;8.15;6.55;;;17.60;99.90;;;;;;4978303;28;20502;-70
2022/06/27 04:53:13;;;;;;;8.02;6.45;;;17.60;99.90;;;;;;4994673;28;20049;-70
2022/06/27 04:55:39;;;;;;;7.60;6.70;;;17.60;99.90;;;;;;4978251;28;20038;-70
2022/06/27 04:58:05;;;;;;;8.63;7.00;;;17.60;99.90;;;;;;4962410;28;20158;-70
2022/06/27 05:00:31;;;;;;;7.07;6.38;;;17.60;99.90;;;;;;4978094;28;20499;-70
2022/06/27 05:02:57;;;;;;;7.80;7.05;;;17.60;99.90;;;;;;4962068;28;20117;-70
2022/06/27 05:05:22;;;;;;;8.48;6.88;;;17.60;99.90;;;;;;4978095;28;20161;-70
2022/06/27 05:07:48;;;;;;;8.93;7.15;;;17.60;99.90;;;;;;4978045;28;20120;-70
2022/06/27 05:10:13;;;;;;;7.70;6.90;;;17.60;99.90;;;;;;4977993;28;20049;-70
2022/06/27 05:12:39;;;;;;;7.63;6.88;;;17.60;99.90;;;;;;4995303;28;20038;-70
2022/06/27 05:15:05;;;;;;;7.43;6.63;;;17.60;99.90;;;;;;4978120;28;20056;-70
2022/06/27 05:17:34;;;;;;;5.72;5.13;;;17.70;99.90;;;;;;4995323;28;20058;-70
2022/06/27 05:20:02;;;;;;;5.13;4.60;;;17.60;99.90;;;;;;4977855;28;20464;-70
2022/06/27 05:22:27;;;;;;;4.72;4.30;;;17.60;99.90;;;;;;4977939;28;20069;-70
2022/06/27 05:24:53;;;;;;;6.00;4.05;;;17.50;99.90;;;;;;4977120;28;20532;-70
2022/06/27 05:27:19;;;;;;;5.93;4.10;;;17.50;99.90;;;;;;4977881;28;20052;-70
2022/06/27 05:29:45;;;;;;;4.65;3.22;;;17.50;99.90;;;;;;4977565;28;20050;-70
2022/06/27 05:32:11;;;;;;;3.80;2.72;;;17.50;99.90;;;;;;4977482;28;20121;-70
2022/06/27 05:34:37;;;;;;;3.00;2.30;;;17.50;99.90;;;;;;4977570;28;20034;-70
2022/06/27 05:37:05;;;;;;;4.47;2.58;;;17.50;99.90;;;;;;4961518;28;20045;-70
2022/06/27 05:39:33;;;;;;;3.50;2.60;;;17.50;99.90;;;;;;4961333;28;20561;-70
2022/06/27 05:41:58;;;;;;;3.75;2.42;;;17.60;99.90;;;;;;4994746;28;20525;-70
2022/06/27 05:44:25;;;;;;;4.00;2.25;;;17.70;99.90;;;;;;4977686;28;20038;-70
2022/06/27 05:46:50;;;;;;;3.50;2.38;;;17.80;99.90;;;;;;4977314;28;20396;-70
2022/06/27 05:49:16;;;;;;;4.25;2.10;;;17.80;99.90;;;;;;4977239;28;20157;-70
2022/06/27 05:51:42;;;;;;;3.50;1.95;;;17.80;99.90;;;;;;4977027;28;20038;-70
2022/06/27 05:54:09;;;;;;;5.05;2.40;;;17.80;99.90;;;;;;4994629;28;20077;-70
2022/06/27 05:56:35;;;;;;;5.70;2.30;;;17.90;99.90;;;;;;4977112;28;20050;-70
2022/06/27 05:59:02;;;;;;;3.50;2.17;;;17.90;99.90;;;;;;4977049;28;20109;-70
2022/06/27 06:01:27;;;;;;;2.63;1.90;;;17.90;99.90;;;;;;4977236;28;20049;-70
2022/06/27 06:03:53;;;;;;;4.72;2.30;;;17.90;99.90;;;;;;4994996;28;20113;-70
2022/06/27 06:06:19;;;;;;;2.58;1.73;;;17.90;99.90;;;;;;4976947;28;20049;-70
2022/06/27 06:08:45;;;;;;;3.38;1.95;;;17.90;99.90;;;;;;4994575;28;20046;-70
2022/06/27 06:11:12;;;;;;;3.45;1.77;;;17.90;99.90;;;;;;4960703;28;20488;-70
2022/06/27 06:13:38;;;;;;;3.20;1.98;;;17.90;99.90;;;;;;4961197;28;20462;-70
2022/06/27 06:16:06;;;;;;;3.13;1.70;;;17.90;99.90;;;;;;4993175;28;20530;-70
2022/06/27 06:18:33;;;;;;;3.90;1.80;;;17.90;99.90;;;;;;4976707;28;20050;-70
2022/06/27 06:20:59;;;;;;;3.38;1.90;;;17.80;99.90;;;;;;4976738;28;20050;-70
2022/06/27 06:23:25;;;;;;;5.93;1.98;;;17.80;99.90;;;;;;4976762;28;20048;-70
2022/06/27 06:25:51;;;;;;;3.22;1.65;;;17.80;99.90;;;;;;4994062;28;20132;-70
2022/06/27 06:28:17;;;;;;;4.05;1.50;;;17.80;99.90;;;;;;4976700;28;20038;-70
2022/06/27 06:30:43;;;;;;;2.95;1.80;;;17.80;99.90;;;;;;4976496;28;20375;-71
2022/06/27 06:33:08;;;;;;;3.70;1.55;;;17.80;99.90;;;;;;4976562;28;20113;-70
2022/06/27 06:35:34;;;;;;;3.42;1.80;;;17.80;99.90;;;;;;4976859;28;20169;-70
2022/06/27 06:38:02;;;;;;;2.40;1.50;;;17.80;99.90;;;;;;4992634;28;20054;-70
2022/06/27 06:40:28;;;;;;;2.30;1.85;;;17.90;99.90;;;;;;4994322;28;20049;-70
2022/06/27 06:42:54;;;;;;;3.72;2.20;;;17.80;99.90;;;;;;4993884;28;20046;-69
2022/06/27 06:45:20;;;;;;;2.30;1.70;;;17.90;99.90;;;;;;4976893;28;20059;-71
2022/06/27 06:47:48;;;;;;;3.70;1.90;;;17.90;99.90;;;;;;4992702;28;20053;-70
2022/06/27 06:50:18;;;;;;;3.90;2.20;;;17.90;99.90;;;;;;4994011;28;20042;-69
2022/06/27 06:52:46;;;;;;;3.35;1.92;;;17.90;99.90;;;;;;4994157;28;20038;-70
2022/06/27 06:55:13;;;;;;;2.80;2.10;;;17.90;99.90;;;;;;4976299;28;20049;-69
2022/06/27 06:57:39;;;;;;;3.47;2.05;;;17.90;99.90;;;;;;4976277;28;20050;-69
2022/06/27 07:00:07;;;;;;;3.75;2.28;;;17.90;99.90;;;;;;4976255;28;20074;-69
2022/06/27 07:02:34;;;;;;;3.30;2.10;;;17.80;99.90;;;;;;4976281;28;20053;-70
2022/06/27 07:05:02;;;;;;;6.07;2.20;;;17.80;99.90;;;;;;4976237;28;20074;-70
2022/06/27 07:07:28;;;;;;;3.05;2.10;;;17.80;99.90;;;;;;4976105;28;20071;-70
2022/06/27 07:09:54;;;;;;;2.67;2.03;;;17.90;99.90;;;;;;4976126;28;20053;-70
2022/06/27 07:12:20;;;;;;;2.30;2.05;;;17.90;99.90;;;;;;4993877;28;20114;-69
2022/06/27 07:14:47;;;;;;;3.45;2.38;;;17.90;99.90;;;;;;4976343;28;20491;-69
2022/06/27 07:17:12;;;;;;;3.28;2.40;;;17.90;99.90;;;;;;4976165;28;20097;-70
2022/06/27 07:19:38;;;;;;;3.28;2.33;;;17.90;99.90;;;;;;4976044;28;20034;-70
2022/06/27 07:22:07;;;;;;;3.97;2.40;;;17.90;99.90;;;;;;4993634;28;20065;-70
2022/06/27 07:24:33;;;;;;;4.00;2.00;;;17.90;99.90;;;;;;4993780;28;20069;-70
2022/06/27 07:26:59;;;;;;;5.95;2.60;;;17.90;99.90;;;;;;4993680;28;20065;-70
2022/06/27 07:29:26;;;;;;;5.22;2.47;;;17.90;99.90;;;;;;4975941;28;20173;-70
2022/06/27 07:31:53;;;;;;;4.32;2.28;;;18.00;99.90;;;;;;4993629;28;20070;-70
2022/06/27 07:34:21;;;;;;;4.03;2.42;;;17.90;99.90;;;;;;4993397;28;20038;-70
2022/06/27 07:36:48;;;;;;;3.20;2.47;;;17.90;99.90;;;;;;4976162;28;20173;-70
2022/06/27 07:39:14;;;;;;;3.38;2.50;;;17.90;99.90;;;;;;4960352;28;20042;-70
2022/06/27 07:41:40;;;;;;;4.60;2.70;;;17.90;99.90;;;;;;4993729;28;20117;-70
2022/06/27 07:44:06;;;;;;;5.97;2.47;;;17.90;99.90;;;;;;4975933;28;20588;-70
2022/06/27 07:46:34;;;;;;;2.92;2.55;;;18.00;99.90;;;;;;4975856;28;20050;-70
2022/06/27 07:49:00;;;;;;;5.32;2.63;;;17.90;99.90;;;;;;4977740;28;20042;-70
2022/06/27 07:51:25;;;;;;;4.35;2.25;;;17.90;99.90;;;;;;4996806;28;20042;-70
2022/06/27 07:53:51;;;;;;;4.70;2.70;;;17.90;99.90;;;;;;4979741;28;20042;-70
2022/06/27 07:56:18;;;;;;;4.22;2.30;;;17.90;99.90;;;;;;4979771;28;20491;-70
2022/06/27 07:58:44;;;;;;;4.10;2.53;;;18.00;99.90;;;;;;4995594;28;20046;-70
2022/06/27 08:01:14;;;;;;;3.45;2.33;;;18.10;99.90;;;;;;4979312;28;20046;-70
2022/06/27 08:03:40;;;;;;;3.65;2.60;;;18.10;99.90;;;;;;4979327;28;20515;-70
2022/06/27 08:06:20;;;;;;;3.30;2.50;;;18.20;99.90;;;;;;4995436;28;20054;-70
2022/06/27 08:09:03;;;;;;;3.30;2.50;;;18.20;99.90;;;;;;4962877;28;20057;-70
2022/06/27 08:11:31;;;;;;;6.32;2.40;;;18.30;99.90;;;;;;4979108;28;20121;-70
2022/06/27 08:14:03;;;;;;;3.65;2.13;;;18.40;99.90;;;;;;4979050;28;20042;-70
2022/06/27 08:16:30;;;;;;;3.08;2.22;;;18.50;99.90;;;;;;4979049;28;20049;-70
2022/06/27 08:18:56;;;;;;;5.18;2.47;;;18.60;99.90;;;;;;4979174;28;20046;-70
2022/06/27 08:21:25;;;;;;;4.63;2.28;;;18.80;99.90;;;;;;4996373;28;20092;-69
2022/06/27 08:23:53;;;;;;;3.20;2.25;;;18.80;99.90;;;;;;4979070;28;20034;-69
2022/06/27 08:26:20;;;;;;;4.28;2.20;;;18.90;99.90;;;;;;4962730;28;20043;-70
2022/06/27 08:28:47;;;;;;;4.60;1.98;;;19.00;99.90;;;;;;4996134;28;20054;-70
2022/06/27 08:31:14;;;;;;;2.80;2.28;;;19.00;99.90;;;;;;4978623;28;20050;-70
2022/06/27 08:33:42;;;;;;;3.10;1.90;;;19.10;99.90;;;;;;4979451;28;20038;-70
2022/06/27 08:36:08;;;;;;;3.53;2.15;;;19.10;99.90;;;;;;4979173;28;20487;-70
2022/06/27 08:38:39;;;;;;;3.80;1.95;;;19.10;99.90;;;;;;4978863;28;20054;-69
2022/06/27 08:41:05;;;;;;;3.75;2.10;;;19.10;99.90;;;;;;4978702;28;20058;-70
2022/06/27 08:43:31;;;;;;;3.03;1.70;;;19.10;99.90;;;;;;4978427;28;20058;-70
2022/06/27 08:45:58;;;;;;;5.43;2.20;;;19.10;99.90;;;;;;4978647;28;20050;-70
2022/06/27 08:48:23;;;;;;;3.67;1.65;;;19.10;99.90;;;;;;4978395;28;20042;-70
2022/06/27 08:50:50;;;;;;;3.08;1.60;;;19.10;99.90;;;;;;4978224;28;20131;-70
2022/06/27 08:53:16;;;;;;;2.50;1.58;;;19.10;99.90;;;;;;4978578;28;20041;-70
2022/06/27 08:55:46;;;;;;;3.15;1.70;;;19.10;99.90;;;;;;4978266;28;20487;-70
2022/06/27 08:58:13;;;;;;;3.03;2.00;;;19.20;99.90;;;;;;4978218;28;20046;-69
2022/06/27 09:00:42;;;;;;;2.92;1.70;;;19.30;99.90;;;;;;4977257;28;20053;-69
2022/06/27 09:03:08;;;;;;;5.18;2.10;;;19.40;99.90;;;;;;4994319;28;20046;-70
2022/06/27 09:05:34;;;;;;;3.78;1.92;;;19.50;99.90;;;;;;4978093;28;20552;-70
2022/06/27 09:08:02;;;;;;;4.78;1.42;;;19.60;99.90;;;;;;4978321;28;20082;-71
2022/06/27 09:10:36;;;;;;;5.07;2.20;;;19.70;99.90;;;;;;4978162;28;20070;-71
2022/06/27 09:13:06;;;;;;;2.78;1.83;;;19.90;99.90;;;;;;4978312;28;20034;-71
2022/06/27 09:15:57;;;;;;;3.15;1.50;;;20.00;99.90;;;;;;4977929;28;20038;-71
2022/06/27 09:18:32;;;;;;;2.90;1.65;;;20.10;99.90;;;;;;4977935;28;20533;-71
2022/06/27 09:21:03;;;;;;;3.97;1.60;;;20.10;99.90;;;;;;4977955;28;20046;-71
2022/06/27 09:23:40;;;;;;;3.42;1.33;;;20.00;99.90;;;;;;4962077;28;20115;-71
2022/06/27 09:26:32;;;;;;;2.72;1.30;;;20.00;99.90;;;;;;4977772;28;20050;-71
2022/06/27 09:29:12;;;;;;;2.42;1.23;;;19.90;99.90;;;;;;4973763;28;20142;-71
2022/06/27 09:31:42;;;;;;;4.15;1.50;;;19.70;99.90;;;;;;4961732;28;20061;-71
2022/06/27 09:34:20;;;;;;;3.28;1.40;;;19.60;99.90;;;;;;4978886;28;20046;-71
2022/06/27 09:36:47;;;;;;;1.75;1.35;;;19.60;99.90;;;;;;4977590;28;20047;-71
2022/06/27 09:39:28;;;;;;;3.78;1.30;;;19.40;99.90;;;;;;4977741;28;20057;-71
2022/06/27 09:42:07;;;;;;;2.38;1.40;;;19.40;99.90;;;;;;4961263;28;20042;-71
2022/06/27 09:44:35;;;;;;;4.00;1.80;;;19.40;99.90;;;;;;4977843;28;20042;-71
2022/06/27 09:47:04;;;;;;;3.67;1.55;;;19.40;99.90;;;;;;4977572;28;20049;-70
2022/06/27 09:49:36;;;;;;;1.42;1.20;;;19.50;99.90;;;;;;4977288;28;20096;-70
2022/06/27 09:52:06;;;;;;;3.30;1.35;;;19.50;99.90;;;;;;4993523;28;20058;-72
2022/06/27 09:54:34;;;;;;;3.35;1.45;;;19.60;99.90;;;;;;4977498;28;20039;-71
2022/06/27 09:57:00;;;;;;;5.63;1.70;;;19.60;99.90;;;;;;4960979;28;20038;-70
2022/06/27 09:59:27;;;;;;;2.85;1.38;;;19.50;99.90;;;;;;4993276;28;20076;-71
2022/06/27 10:01:57;;;;;;;2.72;1.60;;;19.60;99.90;;;;;;4993583;28;20069;-72
2022/06/27 10:04:24;;;;;;;2.72;1.65;;;19.70;99.90;;;;;;4960972;28;20411;-72
2022/06/27 10:06:51;;;;;;;5.70;1.70;;;19.80;99.90;;;;;;4976993;28;20050;-71
2022/06/27 10:09:20;;;;;;;5.57;1.80;;;19.90;99.90;;;;;;4993123;28;20454;-72
2022/06/27 10:11:46;;;;;;;2.53;1.60;;;19.90;99.90;;;;;;4976518;28;20117;-72
2022/06/27 10:14:26;;;;;;;2.63;1.77;;;20.00;99.90;;;;;;4976916;28;20034;-72
2022/06/27 10:16:57;;;;;;;4.05;1.80;;;20.10;99.90;;;;;;4960692;28;20072;-72
2022/06/27 10:19:26;;;;;;;5.75;1.90;;;20.10;99.90;;;;;;4976802;28;20391;-72
2022/06/27 10:21:52;;;;;;;3.28;1.58;;;20.10;99.90;;;;;;4976744;28;20097;-72
2022/06/27 10:24:21;;;;;;;4.15;1.33;;;20.00;99.90;;;;;;4992838;28;20046;-72
2022/06/27 10:26:48;;;;;;;1.88;1.40;;;20.10;99.90;;;;;;4977047;28;20451;-72
2022/06/27 10:29:32;;;;;;;3.13;1.25;;;20.00;99.90;;;;;;4976654;28;20129;-72
2022/06/27 10:31:59;;;;;;;2.55;1.40;;;20.00;99.90;;;;;;4976986;28;20046;-72
2022/06/27 10:34:40;;;;;;;2.17;1.30;;;20.00;99.90;;;;;;4976749;28;20049;-72
2022/06/27 10:37:28;;;;;;;3.78;1.60;;;20.10;99.90;;;;;;4976754;28;20034;-71
2022/06/27 10:40:20;;;;;;;4.00;1.40;;;20.10;99.90;;;;;;4976314;28;20042;-71
2022/06/27 10:42:47;;;;;;;2.85;1.70;;;20.20;99.90;;;;;;4976571;28;20068;-71
2022/06/27 10:45:28;;;;;;;4.20;1.52;;;20.20;99.90;;;;;;4976667;28;20566;-73
2022/06/27 10:47:58;;;;;;;17.52;1.83;;;20.20;99.90;;;;;;4960175;28;20042;-69
2022/06/27 10:50:28;;;;;;;5.60;1.35;;;20.30;99.90;;;;;;4976184;28;20047;-70
2022/06/27 10:53:24;;;;;;;3.42;1.20;;;20.30;99.90;;;;;;4976398;28;20123;-70
2022/06/27 10:55:49;;;;;;;2.38;1.63;;;20.40;99.90;;;;;;4974802;28;20054;-70
2022/06/27 10:58:24;;;;;;;5.15;1.63;;;20.30;99.90;;;;;;4993967;28;20040;-69
2022/06/27 11:00:50;;;;;;;3.30;1.70;;;20.30;99.90;;;;;;4960099;28;20043;-69
2022/06/27 11:03:25;;;;;;;5.20;1.92;;;20.30;99.90;;;;;;4976529;28;20054;-69
2022/06/27 11:05:53;;;;;;;3.42;1.98;;;20.30;99.90;;;;;;4993580;28;20487;-69
2022/06/27 11:08:23;;;;;;;3.92;1.80;;;20.30;99.90;;;;;;4976352;28;20057;-70
2022/06/27 11:10:49;;;;;;;3.65;1.90;;;20.30;99.90;;;;;;4976091;28;20047;-70
2022/06/27 11:13:42;;;;;;;1.95;1.50;;;20.30;99.90;;;;;;4992427;28;20053;-69
2022/06/27 11:16:19;;;;;;;5.35;2.30;;;20.40;99.90;;;;;;4992444;28;20049;-69
2022/06/27 11:18:46;;;;;;;4.20;2.13;;;20.40;99.90;;;;;;4992599;28;20050;-70
2022/06/27 11:21:15;;;;;;;4.47;2.00;;;20.40;99.90;;;;;;4976286;28;20042;-70
2022/06/27 11:24:11;;;;;;;2.83;1.60;;;20.40;99.90;;;;;;4977511;28;20042;-72
2022/06/27 11:26:48;;;;;;;3.28;1.65;;;20.40;99.90;;;;;;4962694;28;20054;-73
2022/06/27 11:32:06;;;;;;;3.10;1.90;;;20.20;99.90;;;;;;4979760;28;20042;-73
2022/06/27 11:34:33;;;;;;;2.92;1.95;;;20.10;99.90;;;;;;4979771;28;20117;-73
2022/06/27 11:37:03;;;;;;;5.20;2.30;;;20.10;99.90;;;;;;4996388;28;20034;-73
2022/06/27 11:39:33;;;;;;;2.25;1.70;;;20.10;99.90;;;;;;4963865;28;20049;-73
2022/06/27 11:42:02;;;;;;;3.28;1.75;;;20.20;99.90;;;;;;4963741;28;20054;-73
2022/06/27 11:44:28;;;;;;;5.38;2.05;;;20.20;99.90;;;;;;4979560;28;20129;-73
2022/06/27 11:47:08;;;;;;;6.13;2.28;;;20.30;99.90;;;;;;4979518;28;20121;-71
2022/06/27 11:49:38;;;;;;;6.15;2.38;;;20.40;99.90;;;;;;4979426;28;20054;-72
2022/06/27 11:52:10;;;;;;;4.07;2.00;;;20.30;99.90;;;;;;4963207;28;20513;-72
2022/06/27 11:54:48;;;;;;;3.92;2.30;;;20.20;99.90;;;;;;4996147;28;20042;-72
2022/06/27 11:57:31;;;;;;;3.25;2.15;;;20.20;99.90;;;;;;4979374;28;20403;-72
2022/06/27 11:59:57;;;;;;;3.28;2.33;;;20.20;99.90;;;;;;4979310;28;20042;-71
2022/06/27 12:02:28;;;;;;;4.43;2.65;;;20.10;99.90;;;;;;4963526;28;20148;-71
2022/06/27 12:05:06;;;;;;;4.05;2.67;;;20.20;99.90;;;;;;4979212;28;20046;-71
2022/06/27 12:07:47;;;;;;;7.57;3.00;;;20.20;99.90;;;;;;4995342;28;20042;-71
2022/06/27 12:10:14;;;;;;;4.38;2.65;;;20.20;99.90;;;;;;4963260;28;20417;-71
2022/06/27 12:12:44;;;;;;;4.72;2.75;;;20.30;99.90;;;;;;4979083;28;20042;-71
2022/06/27 12:15:20;;;;;;;3.83;2.70;;;20.30;99.90;;;;;;4979324;28;20042;-71
2022/06/27 12:17:46;;;;;;;4.35;2.65;;;20.40;99.90;;;;;;4979101;28;20042;-71
2022/06/27 12:20:12;;;;;;;5.00;2.92;;;20.50;99.90;;;;;;4978944;28;20112;-71
2022/06/27 12:22:37;;;;;;;3.25;2.35;;;20.60;99.90;;;;;;4996547;28;20038;-71
2022/06/27 12:25:03;;;;;;;4.97;2.70;;;20.60;99.90;;;;;;4963105;28;20042;-71
2022/06/27 12:27:29;;;;;;;5.40;2.95;;;20.70;99.90;;;;;;4978747;28;20509;-71
2022/06/27 12:29:55;;;;;;;4.18;2.90;;;20.80;99.90;;;;;;4978676;28;20042;-71
2022/06/27 12:32:21;;;;;;;4.35;3.58;;;20.80;99.90;;;;;;4979139;28;20046;-70
2022/06/27 12:34:48;;;;;;;4.15;3.08;;;20.80;99.90;;;;;;4996472;28;20491;-70
2022/06/27 12:37:14;;;;;;;3.67;3.28;;;20.80;99.90;;;;;;4978584;28;20042;-71
2022/06/27 12:39:39;;;;;;;5.00;3.30;;;20.80;99.90;;;;;;4978642;28;20042;-71
2022/06/27 12:42:05;;;;;;;4.75;3.65;;;20.90;99.90;;;;;;4978508;28;20046;-70
2022/06/27 12:44:31;;;;;;;4.40;3.70;;;20.90;99.90;;;;;;4978491;28;20034;-70
2022/06/27 12:46:56;;;;;;;3.83;3.40;;;20.80;99.90;;;;;;4978464;28;20132;-70
2022/06/27 12:49:22;;;;;;;4.38;3.58;;;20.80;99.90;;;;;;4995979;28;20125;-71
2022/06/27 12:51:49;;;;;;;5.25;3.40;;;20.80;99.90;;;;;;4995774;28;20045;-71
2022/06/27 12:54:14;;;;;;;4.90;3.97;;;20.70;99.90;;;;;;4978529;28;20038;-71
2022/06/27 12:56:40;;;;;;;5.13;3.65;;;20.70;99.90;;;;;;4978583;28;20053;-70